F/V Carmalia — FMFK — position and weather

sailwx.info

Track history (hours):
 
Tides and Currents Weather Stations Pressure Air Temp Water Temp Dewpoint Dewpoint Depression Visibility Wind Speed Wind Dir Waves Ship Positions

F/V Carmalia

Last reported at 2016-Jul-20 22:33 UTC. Time now 2016-Jul-25 11:56 UTC.
Position N 47°13' W 003°33'.

Length 17 m.

Type: Fishing. MMSI: 228222900.

Date/timePositionNaut miles runAvg speedWind from/ knotsBaromVisibWave heightAir tempDewpointWater temp
2016-Jul-20 22:33N 47°13' W 003°33'8 7.6
2016-Jul-20 21:33N 47°21' W 003°30'8 8.0
2016-Jul-20 20:33N 47°28' W 003°27'8 8.1
2016-Jul-20 19:33N 47°36' W 003°24'8 7.7
2016-Jul-20 18:34N 47°44' W 003°22'0 0.0
2016-Jul-20 17:33N 47°44' W 003°22'0 0.0
2016-Jul-20 16:33N 47°44' W 003°22'0 0.0
2016-Jul-20 10:05N 47°44' W 003°22'0 0.0
2016-Jul-20 09:34N 47°44' W 003°22'1 0.1
2016-Jul-19 17:34N 47°43' W 003°22'9 9.4
2016-Jul-19 16:34N 47°34' W 003°25'10 9.9
2016-Jul-19 15:34N 47°24' W 003°29'6 6.1
2016-Jul-19 14:34N 47°30' W 003°27'9 8.6
2016-Jul-19 13:33N 47°38' W 003°24'3 3.4
2016-Jul-19 12:34N 47°42' W 003°23'2 2.2
2016-Jul-19 11:34N 47°44' W 003°22'0 0.1
2016-Jul-19 10:33N 47°44' W 003°22'0 0.0
2016-Jul-19 09:34N 47°44' W 003°22'0 0.0
2016-Jul-19 08:33N 47°44' W 003°22'0 0.0
2016-Jul-19 07:33N 47°44' W 003°22'0 0.0
2016-Jul-18 16:11N 47°44' W 003°22'0 0.0
2016-Jul-18 15:34N 47°44' W 003°22'0 0.0
2016-Jul-18 14:18N 47°44' W 003°22'0 0.0
2016-Jul-18 13:33N 47°44' W 003°22'0 0.0
2016-Jul-18 12:33N 47°44' W 003°22'0 0.0
2016-Jul-18 11:33N 47°44' W 003°22'0 0.0
2016-Jul-18 10:33N 47°44' W 003°22'0 0.0
2016-Jul-18 09:33N 47°44' W 003°22'0 0.0
2016-Jul-18 08:34N 47°44' W 003°22'0 0.0
2016-Jul-18 07:34N 47°44' W 003°22'  
2016-Jul-15 09:33N 47°44' W 003°22'0 0.0
2016-Jul-15 08:33N 47°44' W 003°22'0 0.0
2016-Jul-15 07:33N 47°44' W 003°22'0 0.0
2016-Jul-15 06:33N 47°44' W 003°22'0 0.0
2016-Jul-15 05:33N 47°44' W 003°22'0 0.0
2016-Jul-13 14:15N 47°44' W 003°22'0 0.0
2016-Jul-13 13:12N 47°44' W 003°22'0 0.0
2016-Jul-13 12:34N 47°44' W 003°22'0 0.0
2016-Jul-13 11:34N 47°44' W 003°22'0 0.0
2016-Jul-13 09:33N 47°44' W 003°22'0 0.0
2016-Jul-13 07:31N 47°44' W 003°22'  
Track history (hours):
 
Tides and Currents Weather Stations Pressure Air Temp Water Temp Dewpoint Dewpoint Depression Visibility Wind Speed Wind Dir Waves Ship Positions

F/V Carmalia

Last reported at 2016-Jul-20 22:33 UTC. Time now 2016-Jul-25 11:56 UTC.
Position N 47°13' W 003°33'.

Length 17 m.

Type: Fishing. MMSI: 228222900.

Date/timePositionNaut miles runAvg speedWind from/ knotsBaromVisibWave heightAir tempDewpointWater temp
2016-Jul-20 22:33N 47°13' W 003°33'8 7.6
2016-Jul-20 21:33N 47°21' W 003°30'8 8.0
2016-Jul-20 20:33N 47°28' W 003°27'8 8.1
2016-Jul-20 19:33N 47°36' W 003°24'8 7.7
2016-Jul-20 18:34N 47°44' W 003°22'0 0.0
2016-Jul-20 17:33N 47°44' W 003°22'0 0.0
2016-Jul-20 16:33N 47°44' W 003°22'0 0.0
2016-Jul-20 10:05N 47°44' W 003°22'0 0.0
2016-Jul-20 09:34N 47°44' W 003°22'1 0.1
2016-Jul-19 17:34N 47°43' W 003°22'9 9.4
2016-Jul-19 16:34N 47°34' W 003°25'10 9.9
2016-Jul-19 15:34N 47°24' W 003°29'6 6.1
2016-Jul-19 14:34N 47°30' W 003°27'9 8.6
2016-Jul-19 13:33N 47°38' W 003°24'3 3.4
2016-Jul-19 12:34N 47°42' W 003°23'2 2.2
2016-Jul-19 11:34N 47°44' W 003°22'0 0.1
2016-Jul-19 10:33N 47°44' W 003°22'0 0.0
2016-Jul-19 09:34N 47°44' W 003°22'0 0.0
2016-Jul-19 08:33N 47°44' W 003°22'0 0.0
2016-Jul-19 07:33N 47°44' W 003°22'0 0.0
2016-Jul-18 16:11N 47°44' W 003°22'0 0.0
2016-Jul-18 15:34N 47°44' W 003°22'0 0.0
2016-Jul-18 14:18N 47°44' W 003°22'0 0.0
2016-Jul-18 13:33N 47°44' W 003°22'0 0.0
2016-Jul-18 12:33N 47°44' W 003°22'0 0.0
2016-Jul-18 11:33N 47°44' W 003°22'0 0.0
2016-Jul-18 10:33N 47°44' W 003°22'0 0.0
2016-Jul-18 09:33N 47°44' W 003°22'0 0.0
2016-Jul-18 08:34N 47°44' W 003°22'0 0.0
2016-Jul-18 07:34N 47°44' W 003°22'  
2016-Jul-15 09:33N 47°44' W 003°22'0 0.0
2016-Jul-15 08:33N 47°44' W 003°22'0 0.0
2016-Jul-15 07:33N 47°44' W 003°22'0 0.0
2016-Jul-15 06:33N 47°44' W 003°22'0 0.0
2016-Jul-15 05:33N 47°44' W 003°22'0 0.0
2016-Jul-13 14:15N 47°44' W 003°22'0 0.0
2016-Jul-13 13:12N 47°44' W 003°22'0 0.0
2016-Jul-13 12:34N 47°44' W 003°22'0 0.0
2016-Jul-13 11:34N 47°44' W 003°22'0 0.0
2016-Jul-13 09:33N 47°44' W 003°22'0 0.0
2016-Jul-13 07:31N 47°44' W 003°22'  

Dump ship's entire track history